Time;durP1;ratioP1;P1;durP2;ratioP2;P2;SDS_P1;SDS_P2;PMS_P1;PMS_P2;Temp;Humidity;BMP_temperature;BMP_pressure;BME280_temperature;BME280_humidity;BME280_pressure;Samples;Min_cycle;Max_cycle;Signal;HPM_P1;HPM_P2
2022/12/23 00:00:43;;;;;;;0.50;0.50;;;10.50;99.90;;;10.66;nan;99528.94;4997415;28;20681;-65
2022/12/23 00:03:10;;;;;;;0.70;0.70;;;10.60;99.90;;;10.63;nan;99530.03;5002784;28;21256;-64
2022/12/23 00:05:39;;;;;;;0.50;0.50;;;10.50;99.90;;;10.72;nan;99523.16;5006177;28;20626;-66
2022/12/23 00:08:06;;;;;;;0.50;0.50;;;10.50;99.90;;;10.60;nan;99522.50;4991126;28;20627;-65
2022/12/23 00:10:37;;;;;;;0.60;0.60;;;10.60;99.90;;;10.82;nan;99529.19;4995609;28;20693;-66
2022/12/23 00:15:49;;;;;;;0.57;0.50;;;10.60;99.90;;;10.63;nan;99519.59;5004161;28;20666;-66
2022/12/23 00:18:16;;;;;;;0.40;0.40;;;10.60;99.90;;;10.57;nan;99519.31;4996774;28;20637;-65
2022/12/23 00:20:43;;;;;;;1.87;0.70;;;10.50;99.90;;;10.71;nan;99517.13;5007033;28;21275;-64
2022/12/23 00:23:10;;;;;;;0.70;0.70;;;10.60;99.90;;;10.70;nan;99514.66;4994312;28;20634;-64
2022/12/23 00:25:43;;;;;;;0.60;0.60;;;10.50;99.90;;;10.55;nan;99518.63;5003046;28;20629;-65
2022/12/23 00:28:13;;;;;;;0.23;0.23;;;10.50;99.90;;;10.63;nan;99508.34;4996189;28;20641;-64
2022/12/23 00:30:49;;;;;;;4.70;0.57;;;10.50;99.90;;;10.64;nan;99510.81;5001993;28;20664;-65
2022/12/23 00:33:22;;;;;;;0.90;0.70;;;10.50;99.90;;;10.71;nan;99517.13;4993185;28;21249;-65
2022/12/23 00:35:50;;;;;;;0.70;0.70;;;10.50;99.90;;;10.81;nan;99523.19;5004776;28;21139;-65
2022/12/23 00:42:52;;;;;;;0.60;0.60;;;10.60;99.90;;;10.82;nan;99523.97;5009542;28;20683;-65
2022/12/23 00:44:04;;;;;;;0.63;0.63;;;10.60;99.90;;;10.60;nan;99514.69;4992570;28;21094;-65
2022/12/23 00:46:31;;;;;;;0.37;0.37;;;10.50;99.90;;;10.51;nan;99519.88;5008930;28;20628;-65
2022/12/23 00:51:43;;;;;;;0.50;0.40;;;10.50;99.90;;;10.69;nan;99526.06;5000330;28;20669;-64
2022/12/23 00:54:10;;;;;;;2.20;0.77;;;10.50;99.90;;;10.70;nan;99527.69;5007940;28;21115;-65
2022/12/23 00:56:37;;;;;;;3.67;0.90;;;10.50;99.90;;;10.72;nan;99534.44;5003954;28;20649;-64
2022/12/23 00:59:05;;;;;;;0.77;0.60;;;10.50;99.90;;;10.69;nan;99520.84;5012073;28;20644;-64
2022/12/23 01:07:05;;;;;;;0.70;0.70;;;10.60;99.90;;;10.68;nan;99537.44;5010487;28;20638;-64
2022/12/23 01:09:32;;;;;;;0.30;0.30;;;10.60;99.90;;;10.62;nan;99546.66;5009708;28;20633;-65
2022/12/23 01:11:59;;;;;;;0.50;0.50;;;10.60;99.90;;;10.71;nan;99547.63;5012338;28;20715;-65
2022/12/23 01:14:26;;;;;;;0.50;0.50;;;10.50;99.90;;;10.79;nan;99545.16;4998646;28;20663;-64
2022/12/23 01:16:53;;;;;;;0.73;0.50;;;10.60;99.90;;;10.72;nan;99546.66;4995151;28;20641;-65
2022/12/23 01:19:20;;;;;;;2.50;0.50;;;10.60;99.90;;;10.78;nan;99552.16;5009188;28;20641;-63
2022/12/23 01:21:47;;;;;;;0.90;0.53;;;10.70;99.90;;;10.76;nan;99563.66;5011829;28;20677;-65
2022/12/23 01:24:14;;;;;;;0.50;0.50;;;10.60;99.90;;;10.83;nan;99568.22;4995789;28;20626;-65
2022/12/23 01:26:41;;;;;;;3.60;1.00;;;10.60;99.90;;;10.91;nan;99572.75;5011670;28;20630;-65
2022/12/23 01:29:08;;;;;;;0.50;0.50;;;10.70;99.90;;;10.89;nan;99572.88;5000107;28;20629;-65
2022/12/23 01:31:35;;;;;;;2.70;0.70;;;10.70;99.90;;;10.92;nan;99571.78;5005032;28;20670;-65
2022/12/23 01:34:02;;;;;;;0.60;0.60;;;10.70;99.90;;;10.91;nan;99589.22;5003895;28;20675;-64
2022/12/23 01:36:29;;;;;;;0.63;0.63;;;10.70;99.90;;;10.82;nan;99597.03;5012764;28;20705;-65
2022/12/23 01:38:56;;;;;;;0.80;0.80;;;10.70;99.90;;;10.95;nan;99594.97;5012303;28;20712;-65
2022/12/23 01:44:54;;;;;;;1.27;0.67;;;10.70;99.90;;;10.86;nan;99607.06;5008899;28;21210;-64
2022/12/23 01:47:46;;;;;;;0.73;0.73;;;10.70;99.90;;;11.03;nan;99615.19;5001363;28;20641;-66
2022/12/23 01:50:26;;;;;;;0.57;0.57;;;10.70;99.90;;;10.86;nan;99617.50;5010677;28;20633;-66
2022/12/23 01:53:07;;;;;;;0.63;0.63;;;10.70;99.90;;;10.97;nan;99623.59;5011899;28;20636;-65
2022/12/23 01:55:42;;;;;;;1.03;0.93;;;10.70;99.90;;;11.00;nan;99620.69;5009570;28;20690;-65
2022/12/23 01:58:23;;;;;;;0.63;0.63;;;10.80;99.90;;;11.13;nan;99629.06;5001374;28;20634;-64
2022/12/23 02:03:43;;;;;;;1.70;0.80;;;10.80;99.90;;;11.19;nan;99629.34;5009439;28;20629;-64
2022/12/23 02:09:23;;;;;;;3.13;0.83;;;10.90;99.90;;;11.14;nan;99633.34;4996929;28;21044;-65
2022/12/23 02:12:27;;;;;;;0.63;0.63;;;10.90;99.90;;;11.20;nan;99632.78;5011375;28;21326;-65
2022/12/23 02:18:52;;;;;;;1.87;0.50;;;11.00;99.90;;;11.28;nan;99635.50;4998055;28;20638;-63
2022/12/23 02:21:37;;;;;;;0.53;0.53;;;10.90;99.90;;;11.27;nan;99639.06;4991548;28;20669;-65
2022/12/23 02:24:47;;;;;;;0.90;0.90;;;11.00;99.90;;;11.29;nan;99643.19;4992143;28;21010;-64
2022/12/23 02:27:25;;;;;;;0.50;0.50;;;11.00;99.90;;;11.28;nan;99654.63;4990371;28;20668;-64
2022/12/23 02:30:26;;;;;;;0.50;0.50;;;11.00;99.90;;;11.41;nan;99665.63;4992673;28;20988;-65
2022/12/23 02:33:05;;;;;;;0.63;0.63;;;11.10;99.90;;;11.49;nan;99670.97;4983730;28;20629;-64
2022/12/23 02:35:58;;;;;;;0.77;0.50;;;11.10;99.90;;;11.51;nan;99670.81;5009488;28;20656;-65
2022/12/23 02:38:35;;;;;;;0.70;0.70;;;11.20;99.90;;;11.55;nan;99680.03;4996300;28;20626;-65
2022/12/23 02:41:21;;;;;;;0.57;0.57;;;11.20;99.90;;;11.48;nan;99686.75;4992545;28;20654;-64
2022/12/23 02:43:59;;;;;;;0.50;0.50;;;11.20;99.90;;;11.50;nan;99683.03;5011739;28;21217;-65
2022/12/23 02:47:04;;;;;;;0.70;0.50;;;11.20;99.90;;;11.53;nan;99684.56;5001407;28;20684;-65
2022/12/23 02:49:42;;;;;;;0.50;0.50;;;11.20;99.90;;;11.66;nan;99690.31;4990886;28;20626;-64
2022/12/23 02:52:14;;;;;;;0.60;0.60;;;11.30;99.90;;;11.58;nan;99698.84;5005134;28;20663;-65
2022/12/23 02:54:49;;;;;;;0.50;0.50;;;11.30;99.90;;;11.49;nan;99710.16;4990049;28;20631;-63
2022/12/23 02:57:23;;;;;;;0.50;0.50;;;11.40;99.90;;;11.60;nan;99698.72;4990375;28;20688;-65
2022/12/23 02:59:51;;;;;;;0.80;0.80;;;11.30;99.90;;;11.61;nan;99708.19;4989480;28;20630;-64
2022/12/23 03:02:18;;;;;;;0.50;0.50;;;11.40;99.90;;;11.53;nan;99718.53;4992579;28;20677;-65
2022/12/23 03:04:45;;;;;;;0.43;0.43;;;11.30;99.90;;;11.53;nan;99721.97;5009303;28;20638;-64
2022/12/23 03:07:30;;;;;;;0.70;0.70;;;11.30;99.90;;;11.45;nan;99713.16;4993604;28;20633;-64
2022/12/23 03:10:28;;;;;;;0.50;0.50;;;11.30;99.90;;;11.61;nan;99726.50;4993045;28;21205;-64
2022/12/23 03:13:33;;;;;;;0.40;0.40;;;11.30;99.90;;;11.62;nan;99715.09;5005466;28;20652;-64
2022/12/23 03:16:37;;;;;;;0.53;0.53;;;11.30;99.90;;;11.73;nan;99722.81;5010938;28;21216;-64
2022/12/23 03:19:36;;;;;;;0.53;0.53;;;11.30;99.90;;;11.63;nan;99724.56;4999934;28;21052;-64
2022/12/23 03:22:22;;;;;;;0.50;0.50;;;11.40;99.90;;;11.78;nan;99727.59;5009104;28;20686;-64
2022/12/23 03:25:18;;;;;;;0.40;0.40;;;11.40;99.90;;;11.53;nan;99721.13;4990369;28;20644;-64
2022/12/23 03:28:18;;;;;;;0.40;0.40;;;11.40;99.90;;;11.69;nan;99731.91;4973128;28;20638;-64
2022/12/23 03:30:50;;;;;;;0.40;0.40;;;11.40;99.90;;;11.70;nan;99743.97;4992983;28;20707;-64
2022/12/23 03:33:35;;;;;;;0.50;0.50;;;11.40;99.90;;;11.64;nan;99747.13;4993521;28;21016;-62
2022/12/23 03:36:18;;;;;;;0.50;0.50;;;11.40;99.90;;;11.63;nan;99755.91;5010213;28;20626;-64
2022/12/23 03:38:47;;;;;;;0.50;0.50;;;11.40;99.90;;;11.64;nan;99760.19;4993867;28;20632;-64
2022/12/23 03:41:20;;;;;;;0.50;0.50;;;11.40;99.90;;;11.73;nan;99772.47;4992645;28;20676;-64
2022/12/23 03:43:54;;;;;;;0.40;0.40;;;11.40;99.90;;;11.69;nan;99760.66;4991706;28;20630;-64
2022/12/23 03:46:51;;;;;;;0.30;0.30;;;11.50;99.90;;;11.77;nan;99778.22;4980403;28;20633;-64
2022/12/23 03:49:39;;;;;;;0.40;0.40;;;11.50;99.90;;;11.56;nan;99767.91;5001760;28;20638;-64
2022/12/23 03:52:14;;;;;;;0.60;0.60;;;11.40;99.90;;;11.66;nan;99779.16;4992086;28;20670;-64
2022/12/23 03:54:54;;;;;;;0.50;0.50;;;11.40;99.90;;;11.63;nan;99775.03;5009984;28;20693;-64
2022/12/23 03:57:30;;;;;;;0.57;0.57;;;11.40;99.90;;;11.63;nan;99774.19;4997003;28;20668;-64
2022/12/23 03:59:57;;;;;;;0.50;0.50;;;11.40;99.90;;;11.68;nan;99780.72;4991706;28;20651;-64
2022/12/23 04:02:49;;;;;;;0.80;0.80;;;11.40;99.90;;;11.71;nan;99789.25;4989194;28;20682;-64
2022/12/23 04:05:35;;;;;;;1.27;0.60;;;11.40;99.90;;;11.71;nan;99797.91;4990223;28;20618;-65
2022/12/23 04:08:25;;;;;;;0.50;0.50;;;11.40;99.90;;;11.65;nan;99793.19;4995065;28;20638;-63
2022/12/23 04:10:52;;;;;;;0.50;0.50;;;11.30;99.90;;;11.76;nan;99808.75;5006812;28;20661;-64
2022/12/23 04:13:19;;;;;;;0.40;0.40;;;11.40;99.90;;;11.80;nan;99809.31;5004625;28;20703;-64
2022/12/23 04:15:46;;;;;;;0.50;0.50;;;11.40;99.90;;;11.85;nan;99810.56;5008678;28;20621;-63
2022/12/23 04:18:15;;;;;;;0.50;0.50;;;11.50;99.90;;;11.78;nan;99812.06;5010705;28;20638;-64
2022/12/23 04:20:42;;;;;;;0.40;0.40;;;11.50;99.90;;;11.85;nan;99807.09;5013566;28;20669;-64
2022/12/23 04:23:09;;;;;;;0.60;0.50;;;11.50;99.90;;;11.84;nan;99793.22;4999938;28;20668;-64
2022/12/23 04:25:37;;;;;;;0.40;0.40;;;11.50;99.90;;;11.83;nan;99788.97;5007593;28;20710;-64
2022/12/23 04:28:04;;;;;;;1.50;0.57;;;11.50;99.90;;;11.84;nan;99795.03;5013742;28;21049;-63
2022/12/23 04:30:31;;;;;;;0.60;0.60;;;11.50;99.90;;;11.85;nan;99801.88;4993778;28;20634;-64
2022/12/23 04:33:01;;;;;;;0.60;0.60;;;11.50;99.90;;;11.86;nan;99806.97;5010532;28;20645;-64
2022/12/23 04:35:28;;;;;;;0.50;0.50;;;11.50;99.90;;;11.85;nan;99815.78;5014083;28;20627;-64
2022/12/23 04:37:55;;;;;;;0.53;0.53;;;11.50;99.90;;;11.83;nan;99811.66;5010353;28;20642;-64
2022/12/23 04:40:22;;;;;;;0.60;0.60;;;11.50;99.90;;;11.85;nan;99802.72;4996318;28;20625;-64
2022/12/23 04:42:49;;;;;;;0.60;0.60;;;11.50;99.90;;;11.72;nan;99811.78;5009970;28;20673;-64
2022/12/23 04:45:16;;;;;;;0.70;0.70;;;11.50;99.90;;;11.75;nan;99811.53;5013934;28;20618;-64
2022/12/23 04:47:43;;;;;;;0.70;0.70;;;11.50;99.90;;;11.79;nan;99821.56;5006283;28;20744;-64
2022/12/23 04:50:14;;;;;;;0.57;0.57;;;11.50;99.90;;;11.72;nan;99812.63;4997874;28;20724;-65
2022/12/23 04:52:42;;;;;;;2.00;0.60;;;11.40;99.90;;;11.74;nan;99815.91;4999660;28;20631;-64
2022/12/23 04:55:10;;;;;;;0.90;0.90;;;11.40;99.90;;;11.73;nan;99814.28;4995225;28;20650;-64
2022/12/23 04:57:37;;;;;;;0.50;0.50;;;11.40;99.90;;;11.65;nan;99814.91;5013598;28;20986;-65
2022/12/23 05:00:05;;;;;;;0.50;0.50;;;11.40;99.90;;;11.81;nan;99822.25;5012332;28;20684;-64
2022/12/23 05:02:32;;;;;;;0.50;0.50;;;11.40;99.90;;;11.63;nan;99809.00;4994302;28;20663;-64
2022/12/23 05:04:59;;;;;;;0.57;0.57;;;11.40;99.90;;;11.58;nan;99810.38;4998037;28;20644;-64
2022/12/23 05:07:26;;;;;;;0.87;0.50;;;11.40;99.90;;;11.59;nan;99814.63;4999371;28;21201;-65
2022/12/23 05:09:53;;;;;;;0.43;0.43;;;11.30;99.90;;;11.63;nan;99818.63;5011763;28;20691;-64
2022/12/23 05:12:20;;;;;;;0.50;0.50;;;11.30;99.90;;;11.72;nan;99817.84;5005033;28;20659;-64
2022/12/23 05:14:47;;;;;;;0.50;0.50;;;11.30;99.90;;;11.70;nan;99811.94;5002189;28;21314;-64
2022/12/23 05:17:13;;;;;;;0.80;0.70;;;11.30;99.90;;;11.70;nan;99819.75;5023005;28;20634;-64
2022/12/23 05:19:40;;;;;;;0.50;0.50;;;11.30;99.90;;;11.80;nan;99823.19;5016410;28;20668;-65
2022/12/23 05:22:07;;;;;;;0.40;0.40;;;11.40;99.90;;;11.77;nan;99826.09;5013251;28;20739;-64
2022/12/23 05:24:34;;;;;;;0.50;0.50;;;11.40;99.90;;;11.77;nan;99817.44;5007913;28;20992;-64
2022/12/23 05:27:01;;;;;;;0.50;0.50;;;11.40;99.90;;;11.71;nan;99826.66;5013409;28;20617;-64
2022/12/23 05:29:28;;;;;;;0.60;0.60;;;11.40;99.90;;;11.77;nan;99826.09;5000340;28;20710;-64
2022/12/23 05:31:55;;;;;;;1.50;0.57;;;11.40;99.90;;;11.78;nan;99832.13;5012067;28;20650;-64
2022/12/23 05:34:22;;;;;;;4.10;0.47;;;11.40;99.90;;;11.87;nan;99824.31;5007358;28;20630;-65
2022/12/23 05:36:49;;;;;;;0.57;0.57;;;11.50;99.90;;;11.77;nan;99820.88;5013091;28;20613;-64
2022/12/23 05:39:16;;;;;;;0.70;0.70;;;11.40;99.90;;;11.78;nan;99817.28;5010927;28;20637;-64
2022/12/23 05:41:42;;;;;;;0.60;0.60;;;11.40;99.90;;;11.70;nan;99814.53;5010538;28;20665;-64
2022/12/23 05:44:09;;;;;;;1.93;0.60;;;11.40;99.90;;;11.71;nan;99820.59;5011853;28;20679;-64
2022/12/23 05:46:36;;;;;;;1.07;0.70;;;11.40;99.90;;;11.77;nan;99814.81;5012246;28;20680;-64
2022/12/23 05:49:03;;;;;;;0.50;0.50;;;11.40;99.90;;;11.86;nan;99825.25;5011525;28;20622;-64
2022/12/23 05:51:30;;;;;;;0.50;0.50;;;11.40;99.90;;;11.79;nan;99821.56;5013080;28;21233;-65
2022/12/23 05:53:57;;;;;;;0.60;0.50;;;11.40;99.90;;;11.86;nan;99819.22;4995467;28;21036;-64
2022/12/23 05:56:24;;;;;;;0.50;0.50;;;11.50;99.90;;;11.78;nan;99827.75;5009374;28;20635;-64
2022/12/23 05:58:51;;;;;;;0.40;0.40;;;11.50;99.90;;;11.79;nan;99824.19;4992375;28;20643;-64
2022/12/23 06:01:18;;;;;;;0.50;0.50;;;11.50;99.90;;;11.80;nan;99825.81;5004559;28;20676;-64
2022/12/23 06:03:45;;;;;;;1.07;0.60;;;11.50;99.90;;;11.83;nan;99824.72;4992928;28;21089;-62
2022/12/23 06:06:12;;;;;;;0.50;0.50;;;11.50;99.90;;;11.86;nan;99825.25;5008506;28;20987;-64
2022/12/23 06:08:39;;;;;;;0.60;0.60;;;11.50;99.90;;;11.93;nan;99817.69;5011813;28;21307;-64
2022/12/23 06:11:06;;;;;;;0.43;0.40;;;11.50;99.90;;;11.91;nan;99817.84;4992916;28;20642;-64
2022/12/23 06:13:33;;;;;;;0.43;0.43;;;11.60;99.90;;;11.85;nan;99825.41;4995024;28;20639;-64
2022/12/23 06:16:00;;;;;;;0.60;0.60;;;11.60;99.90;;;11.68;nan;99826.91;5006584;28;20691;-64
2022/12/23 06:18:26;;;;;;;1.57;0.40;;;11.50;99.90;;;11.63;nan;99821.22;4996267;28;20639;-64
2022/12/23 06:20:53;;;;;;;0.60;0.60;;;11.40;99.90;;;11.63;nan;99829.06;5008788;28;20658;-64
2022/12/23 06:23:20;;;;;;;0.60;0.60;;;11.40;99.90;;;11.67;nan;99828.69;4999306;28;20720;-64
2022/12/23 06:25:47;;;;;;;0.60;0.60;;;11.40;99.90;;;11.68;nan;99832.16;5005102;28;20714;-64
2022/12/23 06:28:14;;;;;;;0.80;0.80;;;11.40;99.90;;;11.77;nan;99833.94;4998942;28;20770;-64
2022/12/23 06:30:41;;;;;;;0.70;0.70;;;11.40;99.90;;;11.84;nan;99842.06;5004897;28;20668;-64
2022/12/23 06:33:08;;;;;;;0.70;0.70;;;11.40;99.90;;;11.87;nan;99841.78;5011800;28;20644;-65
2022/12/23 06:35:35;;;;;;;1.23;1.23;;;11.50;99.90;;;11.85;nan;99848.94;4999307;28;20630;-63
2022/12/23 06:38:02;;;;;;;0.80;0.80;;;11.50;99.90;;;11.83;nan;99843.00;5001892;28;21199;-64
2022/12/23 06:40:33;;;;;;;1.27;1.00;;;11.50;99.90;;;11.79;nan;99844.25;4991118;28;20634;-65
2022/12/23 06:43:00;;;;;;;4.40;1.30;;;11.50;99.90;;;11.77;nan;99846.19;5009906;28;20671;-65
2022/12/23 06:45:27;;;;;;;1.30;1.30;;;11.40;99.90;;;11.80;nan;99851.94;5001784;28;20642;-64
2022/12/23 06:47:54;;;;;;;1.30;1.30;;;11.40;99.90;;;11.77;nan;99862.69;5007589;28;21092;-64
2022/12/23 06:50:20;;;;;;;1.00;1.00;;;11.40;99.90;;;11.82;nan;99859.69;4989355;28;20636;-64
2022/12/23 06:52:48;;;;;;;0.80;0.80;;;11.40;99.90;;;11.82;nan;99870.94;5010847;28;20636;-64
2022/12/23 06:55:15;;;;;;;1.23;1.23;;;11.40;99.90;;;11.80;nan;99865.00;5008643;28;20665;-64
2022/12/23 06:57:42;;;;;;;0.87;0.87;;;11.50;99.90;;;11.78;nan;99864.31;5011145;28;20638;-63
2022/12/23 07:00:09;;;;;;;0.90;0.90;;;11.40;99.90;;;11.77;nan;99872.31;5004394;28;21198;-63
2022/12/23 07:02:36;;;;;;;0.80;0.80;;;11.40;99.90;;;11.81;nan;99874.53;5002216;28;21236;-65
2022/12/23 07:05:05;;;;;;;0.80;0.80;;;11.40;99.90;;;11.86;nan;99871.50;5004656;28;20642;-65
2022/12/23 07:07:32;;;;;;;1.23;0.80;;;11.40;99.90;;;11.85;nan;99865.44;5005512;28;20691;-64
2022/12/23 07:09:59;;;;;;;0.73;0.73;;;11.50;99.90;;;11.85;nan;99859.38;5011566;28;20680;-64
2022/12/23 07:12:26;;;;;;;0.97;0.97;;;11.50;99.90;;;11.91;nan;99867.50;5003663;28;21298;-64
2022/12/23 07:14:53;;;;;;;0.93;0.93;;;11.50;99.90;;;11.88;nan;99864.34;5010857;28;20618;-64
2022/12/23 07:17:20;;;;;;;1.00;1.00;;;11.50;99.90;;;11.98;nan;99849.47;5010332;28;21087;-63
2022/12/23 07:19:47;;;;;;;1.77;0.87;;;11.60;99.90;;;12.05;nan;99850.59;5010335;28;20626;-64
2022/12/23 07:22:14;;;;;;;0.70;0.70;;;11.70;99.90;;;12.04;nan;99844.53;5007127;28;21085;-64
2022/12/23 07:24:41;;;;;;;0.60;0.60;;;11.60;99.90;;;12.08;nan;99850.28;5001934;28;20665;-65
2022/12/23 07:27:08;;;;;;;0.70;0.70;;;11.70;99.90;;;12.10;nan;99851.81;5009517;28;20692;-65
2022/12/23 07:29:35;;;;;;;0.70;0.70;;;11.70;99.90;;;12.15;nan;99854.03;5001002;28;20668;-63
2022/12/23 07:32:03;;;;;;;0.80;0.80;;;11.80;99.90;;;12.10;nan;99854.44;5011242;28;20733;-64
2022/12/23 07:34:30;;;;;;;1.17;1.07;;;11.80;99.90;;;12.13;nan;99861.19;4996590;28;20630;-64
2022/12/23 07:36:57;;;;;;;1.00;1.00;;;11.70;99.90;;;12.18;nan;99851.13;5002372;28;20702;-64
2022/12/23 07:39:24;;;;;;;0.80;0.80;;;11.80;99.90;;;12.07;nan;99869.59;5007251;28;20641;-64
2022/12/23 07:41:51;;;;;;;0.90;0.90;;;11.80;99.90;;;12.15;nan;99883.63;4999946;28;20667;-64
2022/12/23 07:44:35;;;;;;;0.90;0.90;;;11.80;99.90;;;12.17;nan;99893.94;5009518;28;21103;-64
2022/12/23 07:47:02;;;;;;;1.00;0.97;;;11.80;99.90;;;12.15;nan;99903.69;5009177;28;20698;-64
2022/12/23 07:49:29;;;;;;;0.80;0.80;;;11.80;99.90;;;12.22;nan;99889.13;4997855;28;20623;-63
2022/12/23 07:51:56;;;;;;;1.00;1.00;;;11.80;99.90;;;12.26;nan;99890.50;4994112;28;20660;-64
2022/12/23 07:54:23;;;;;;;0.87;0.87;;;11.80;99.90;;;12.37;nan;99887.75;5001601;28;20629;-64
2022/12/23 07:56:50;;;;;;;1.13;1.13;;;11.80;99.90;;;12.32;nan;99882.09;5014554;28;20637;-64
2022/12/23 07:59:17;;;;;;;1.00;1.00;;;11.90;99.90;;;12.34;nan;99880.16;5012362;28;20652;-64
2022/12/23 08:01:44;;;;;;;2.00;1.80;;;11.90;99.90;;;12.30;nan;99884.00;5011822;28;20677;-64
2022/12/23 08:04:11;;;;;;;0.93;0.93;;;11.90;99.90;;;12.32;nan;99884.69;5011841;28;20673;-62
2022/12/23 08:06:38;;;;;;;0.80;0.80;;;11.90;99.90;;;12.31;nan;99877.81;5008706;28;21197;-64
2022/12/23 08:09:05;;;;;;;1.10;1.10;;;11.90;99.90;;;12.29;nan;99891.03;4999324;28;20626;-64
2022/12/23 08:11:32;;;;;;;0.97;0.97;;;11.90;99.90;;;12.37;nan;99883.31;5005206;28;20673;-65
2022/12/23 08:13:59;;;;;;;1.03;1.03;;;12.00;99.90;;;12.45;nan;99890.47;5006549;28;20649;-64
2022/12/23 08:16:26;;;;;;;0.87;0.87;;;12.00;99.90;;;12.32;nan;99896.00;5009510;28;21201;-64
2022/12/23 08:18:53;;;;;;;1.10;1.10;;;12.00;99.90;;;12.36;nan;99886.91;5001057;28;20645;-64
2022/12/23 08:21:20;;;;;;;1.40;1.30;;;12.00;99.90;;;12.41;nan;99876.81;5012312;28;20657;-64
2022/12/23 08:23:47;;;;;;;1.20;1.10;;;12.00;99.90;;;12.43;nan;99867.06;5013121;28;20665;-64
2022/12/23 08:26:21;;;;;;;1.07;1.00;;;12.00;99.90;;;12.53;nan;99866.22;5012606;28;21287;-64
2022/12/23 08:28:52;;;;;;;1.37;1.27;;;12.00;99.90;;;12.48;nan;99864.84;5012381;28;20618;-65
2022/12/23 08:31:21;;;;;;;2.00;1.40;;;12.10;99.90;;;12.48;nan;99873.69;5011121;28;20662;-64
2022/12/23 08:33:51;;;;;;;1.10;1.10;;;12.00;99.90;;;12.46;nan;99865.94;4993059;28;20646;-64
2022/12/23 08:36:23;;;;;;;2.07;1.90;;;12.00;99.90;;;12.45;nan;99873.00;4996523;28;20634;-64
2022/12/23 08:38:53;;;;;;;1.50;1.37;;;12.00;99.90;;;12.50;nan;99877.78;4999974;28;20633;-65
2022/12/23 08:41:25;;;;;;;1.13;1.13;;;12.00;99.90;;;12.50;nan;99877.78;5011777;28;20658;-61
2022/12/23 08:43:52;;;;;;;1.80;1.70;;;12.10;99.90;;;12.55;nan;99887.81;5007427;28;20723;-64
2022/12/23 08:46:19;;;;;;;1.50;1.50;;;12.10;99.90;;;12.53;nan;99881.91;5009470;28;20626;-64
2022/12/23 08:48:46;;;;;;;1.47;1.30;;;12.10;99.90;;;12.57;nan;99883.28;5005453;28;20626;-64
2022/12/23 08:51:18;;;;;;;1.13;1.13;;;12.10;99.90;;;12.60;nan;99885.63;5010332;28;21031;-64
2022/12/23 08:53:46;;;;;;;1.87;1.23;;;12.10;99.90;;;12.63;nan;99882.75;5002888;28;20644;-64
2022/12/23 08:56:20;;;;;;;2.00;1.30;;;12.20;99.90;;;12.64;nan;99887.81;5013699;28;20626;-64
2022/12/23 08:58:51;;;;;;;2.00;1.90;;;12.20;99.90;;;12.62;nan;99889.75;5000860;28;20692;-64
2022/12/23 09:01:22;;;;;;;1.50;1.47;;;12.20;99.90;;;12.61;nan;99889.88;5029453;22;21261;-66
2022/12/23 09:03:49;;;;;;;1.60;1.50;;;12.20;99.90;;;12.60;nan;99898.72;5008054;28;20712;-67
2022/12/23 09:06:23;;;;;;;1.40;1.30;;;12.20;99.90;;;12.61;nan;99895.09;4994969;28;20695;-66
2022/12/23 09:08:56;;;;;;;2.70;1.70;;;12.20;99.90;;;12.60;nan;99881.22;5012018;28;20636;-67
2022/12/23 09:11:26;;;;;;;2.50;1.40;;;12.20;99.90;;;12.56;nan;99886.88;5014649;28;20695;-67
2022/12/23 09:13:55;;;;;;;3.13;1.53;;;12.20;99.90;;;12.53;nan;99882.75;4997590;28;21201;-68
2022/12/23 09:16:22;;;;;;;1.83;1.73;;;12.20;99.90;;;12.60;nan;99890.84;4995065;28;20703;-67
2022/12/23 09:18:49;;;;;;;1.90;1.80;;;12.20;99.90;;;12.63;nan;99887.97;5018071;28;20637;-67
2022/12/23 09:21:19;;;;;;;1.93;1.60;;;12.20;99.90;;;12.55;nan;99901.75;5012021;28;20719;-66
2022/12/23 09:23:46;;;;;;;1.67;1.57;;;12.10;99.90;;;12.48;nan;99893.63;4979203;28;20668;-67
2022/12/23 09:26:27;;;;;;;1.50;1.47;;;12.10;99.90;;;12.48;nan;99899.84;5013938;28;20692;-68
2022/12/23 09:28:55;;;;;;;1.27;1.27;;;12.10;99.90;;;12.54;nan;99888.81;5022103;28;20625;-67
2022/12/23 09:31:23;;;;;;;1.47;1.37;;;12.10;99.90;;;12.60;nan;99883.00;5011582;28;20668;-67
2022/12/23 09:33:53;;;;;;;1.47;1.40;;;12.10;99.90;;;12.58;nan;99874.47;5012514;28;20660;-68
2022/12/23 09:36:21;;;;;;;1.10;1.07;;;12.20;99.90;;;12.58;nan;99877.09;5005439;28;21263;-67
2022/12/23 09:38:56;;;;;;;1.83;1.53;;;12.20;99.90;;;12.58;nan;99874.47;5012027;28;21193;-67
2022/12/23 09:41:39;;;;;;;1.80;1.70;;;12.20;99.90;;;12.67;nan;99868.41;5013019;28;20637;-67
2022/12/23 09:44:28;;;;;;;1.20;1.20;;;12.20;99.90;;;12.69;nan;99861.22;5005699;28;20677;-67
2022/12/23 09:47:02;;;;;;;1.40;1.30;;;12.20;99.90;;;12.67;nan;99857.94;4994153;28;21268;-67
2022/12/23 09:49:29;;;;;;;1.70;1.60;;;12.20;99.90;;;12.68;nan;99860.41;5009113;28;20618;-67
2022/12/23 09:52:02;;;;;;;2.03;1.90;;;12.20;99.90;;;12.65;nan;99865.91;4998040;28;20666;-67
2022/12/23 09:54:40;;;;;;;4.13;1.93;;;12.20;99.90;;;12.64;nan;99858.19;5030614;28;20625;-68
2022/12/23 09:57:10;;;;;;;1.97;1.87;;;12.30;99.90;;;12.73;nan;99863.44;5024717;28;20783;-67
2022/12/23 10:00:08;;;;;;;1.30;1.17;;;12.30;99.90;;;12.63;nan;99854.75;5010307;28;21192;-67
2022/12/23 10:03:07;;;;;;;6.77;4.53;;;12.30;99.90;;;12.22;nan;99857.75;5011003;28;20662;-66
2022/12/23 10:05:56;;;;;;;2.40;2.20;;;12.20;99.90;;;12.32;nan;99855.94;5015063;28;20614;-65
2022/12/23 10:08:37;;;;;;;1.77;1.67;;;12.20;99.90;;;12.61;nan;99846.22;4995282;28;21219;-66
2022/12/23 10:11:12;;;;;;;3.03;1.67;;;12.20;99.90;;;12.66;nan;99844.00;5014300;28;20641;-67
2022/12/23 10:13:59;;;;;;;1.50;1.40;;;12.30;99.90;;;12.81;nan;99847.81;4986310;28;20694;-67
2022/12/23 10:16:55;;;;;;;1.50;1.40;;;12.30;99.90;;;12.79;nan;99838.47;5015267;28;20626;-67
2022/12/23 10:19:45;;;;;;;3.40;1.80;;;12.40;99.90;;;12.73;nan;99839.03;4995142;28;20651;-67
2022/12/23 10:22:39;;;;;;;1.00;1.00;;;12.40;99.90;;;12.73;nan;99833.81;4993917;28;20649;-67
2022/12/23 10:25:27;;;;;;;1.00;1.00;;;12.40;99.90;;;12.73;nan;99834.63;4988965;28;21036;-67
2022/12/23 10:27:54;;;;;;;1.20;1.13;;;12.40;99.90;;;12.75;nan;99834.47;5000505;28;20636;-67
2022/12/23 10:30:23;;;;;;;1.30;1.20;;;12.40;99.90;;;12.86;nan;99824.63;5012730;28;21512;-67
2022/12/23 10:33:22;;;;;;;1.70;1.30;;;12.40;99.90;;;12.79;nan;99823.59;5011723;28;20634;-67
2022/12/23 10:36:26;;;;;;;1.43;1.33;;;12.40;99.90;;;12.83;nan;99826.72;5012284;28;20621;-67
2022/12/23 10:39:19;;;;;;;1.27;1.17;;;12.40;99.90;;;12.72;nan;99816.44;5017428;28;20641;-68
2022/12/23 10:42:10;;;;;;;2.43;1.23;;;12.40;99.90;;;12.83;nan;99818.88;5002688;28;20665;-68
2022/12/23 10:44:55;;;;;;;1.60;1.50;;;12.40;99.90;;;12.93;nan;99806.56;4989909;28;20692;-68
2022/12/23 10:47:44;;;;;;;1.70;1.50;;;12.40;99.90;;;12.80;nan;99806.09;4993842;28;20618;-68
2022/12/23 10:50:45;;;;;;;1.17;1.17;;;12.50;99.90;;;12.82;nan;99802.34;5011311;28;20633;-68
2022/12/23 10:53:48;;;;;;;1.20;1.20;;;12.50;99.90;;;12.68;nan;99797.59;4995904;28;21022;-68
2022/12/23 10:56:16;;;;;;;0.83;0.83;;;12.50;99.90;;;12.67;nan;99795.13;4985664;28;20657;-68
2022/12/23 10:58:50;;;;;;;1.03;0.93;;;12.40;99.90;;;12.54;nan;99787.59;4994362;28;20641;-68
2022/12/23 11:01:18;;;;;;;0.67;0.67;;;12.40;99.90;;;12.61;nan;99787.81;5006728;28;21023;-68
2022/12/23 11:04:19;;;;;;;0.80;0.80;;;12.40;99.90;;;12.55;nan;99781.38;4992553;28;20650;-66
2022/12/23 11:06:51;;;;;;;0.87;0.87;;;12.30;99.90;;;12.62;nan;99781.63;4992952;28;20630;-68
2022/12/23 11:09:47;;;;;;;0.90;0.90;;;12.30;99.90;;;12.52;nan;99778.22;4990246;28;20645;-68
2022/12/23 11:12:14;;;;;;;1.07;0.97;;;12.30;99.90;;;12.50;nan;99769.69;4983886;28;20657;-67
2022/12/23 11:14:55;;;;;;;0.60;0.60;;;12.30;99.90;;;12.55;nan;99770.06;5009293;28;20634;-68
2022/12/23 11:17:30;;;;;;;0.70;0.70;;;12.30;99.90;;;12.48;nan;99753.31;5013871;28;20644;-66
2022/12/23 11:20:09;;;;;;;0.93;0.93;;;12.30;99.90;;;12.47;nan;99742.03;5009135;28;21303;-67
2022/12/23 11:22:50;;;;;;;0.70;0.70;;;12.30;99.90;;;12.38;nan;99735.88;5008575;28;20670;-67
2022/12/23 11:25:28;;;;;;;0.80;0.80;;;12.30;99.90;;;12.59;nan;99722.53;4996384;28;21042;-69